Millville, West Virginia
Current Conditions -  °F | °C
As of 9:08 AM on Monday 26 Jan 2015 (Local Time) from KMRB Reporting Station
Light Snow Light Snow  
Wind Chill: 24°   Ceiling: 500
Heat Index: 31°   Visibility: 0.75mi
Dew Point: 27°   Wind: 7mph
Humidity: 85%   Direction: 10°N
Pressure: 29.78"   Gusts: NA
Location:  39.29°N, 77.79°W
Report Text: KMRB 261408Z 01006KT 3/4SM -SN BR OVC005 M01/M03 A2978 RMK AO2 P0000 T10061028
Loading
Personal Weather Stations






























Interactive Weather Map New forecast layout! Learn more

10-Day Weather Forecast

Advertisements
Track Severe Weather on mobile